createdAt,value
2022-08-19T00:02:00.981Z,67.62
2022-08-19T00:04:33.974Z,67.74
2022-08-19T00:07:03.177Z,68.81
2022-08-19T00:09:32.059Z,71.41
2022-08-19T00:12:03.047Z,70.91
2022-08-19T00:14:33.228Z,70.08
2022-08-19T00:17:04.114Z,68.40
2022-08-19T00:19:33.264Z,69.82
2022-08-19T00:22:03.536Z,69.38
2022-08-19T00:24:32.429Z,70.69
2022-08-19T00:27:25.185Z,70.50
2022-08-19T00:29:52.911Z,71.02
2022-08-19T00:32:22.654Z,69.98
2022-08-19T00:34:54.527Z,72.18
2022-08-19T00:37:27.190Z,72.92
2022-08-19T00:39:56.889Z,73.79
2022-08-19T00:42:29.467Z,74.70
2022-08-19T00:44:58.893Z,73.64
2022-08-19T00:47:27.833Z,74.56
2022-08-19T00:50:00.399Z,74.12
2022-08-19T00:52:34.251Z,75.20
2022-08-19T00:55:05.180Z,77.10
2022-08-19T00:57:40.068Z,74.61
2022-08-19T01:00:13.032Z,74.09
2022-08-19T01:02:43.877Z,74.99
2022-08-19T01:05:16.671Z,74.42
2022-08-19T01:07:45.554Z,76.15
2022-08-19T01:10:20.112Z,75.58
2022-08-19T01:12:51.634Z,75.52
2022-08-19T01:15:23.600Z,74.50
2022-08-19T01:17:53.551Z,76.48
2022-08-19T01:20:24.637Z,75.43
2022-08-19T01:22:57.508Z,74.96
2022-08-19T01:25:30.177Z,76.44
2022-08-19T01:28:06.470Z,75.87
2022-08-19T01:30:40.065Z,75.35
2022-08-19T01:33:14.172Z,76.79
2022-08-19T01:35:44.243Z,76.45
2022-08-19T01:38:26.311Z,80.34
2022-08-19T01:40:56.214Z,80.09
2022-08-19T01:43:25.153Z,78.17
2022-08-19T01:45:54.132Z,77.36
2022-08-19T01:48:23.817Z,76.81
2022-08-19T01:50:52.820Z,79.94
2022-08-19T01:53:23.060Z,78.71
2022-08-19T01:55:59.655Z,79.85
2022-08-19T01:58:34.019Z,79.89
2022-08-19T02:01:03.076Z,80.41
2022-08-19T02:03:32.428Z,85.81
2022-08-19T02:06:04.279Z,83.90
2022-08-19T02:08:37.712Z,81.99
2022-08-19T02:11:08.946Z,81.68
2022-08-19T02:13:37.957Z,81.58
2022-08-19T02:16:07.021Z,84.30
2022-08-19T02:18:36.214Z,82.78
2022-08-19T02:21:05.376Z,82.63
2022-08-19T02:23:35.800Z,82.51
2022-08-19T02:26:05.092Z,83.38
2022-08-19T02:28:34.612Z,82.73
2022-08-19T02:31:03.577Z,82.73
2022-08-19T02:33:32.434Z,81.23
2022-08-19T02:36:01.260Z,82.17
2022-08-19T02:38:29.180Z,80.44
2022-08-19T02:41:01.818Z,82.15
2022-08-19T02:43:34.510Z,83.31
2022-08-19T02:46:04.698Z,82.70
2022-08-19T02:48:34.051Z,83.07
2022-08-19T02:51:02.983Z,83.48
2022-08-19T02:53:31.887Z,86.24
2022-08-19T02:56:02.217Z,86.32
2022-08-19T02:58:31.442Z,86.85
2022-08-19T03:01:00.344Z,85.56
2022-08-19T03:03:29.417Z,84.24
2022-08-19T03:06:10.445Z,84.94
2022-08-19T03:08:40.289Z,85.79
2022-08-19T03:11:15.158Z,84.13
2022-08-19T03:13:44.827Z,87.19
2022-08-19T03:16:14.432Z,84.84
2022-08-19T03:18:43.416Z,84.47
2022-08-19T03:21:17.933Z,85.17
2022-08-19T03:23:47.232Z,84.36
2022-08-19T03:26:17.876Z,85.28
2022-08-19T03:28:51.536Z,86.24
2022-08-19T03:31:44.283Z,83.92
2022-08-19T03:34:18.853Z,85.19
2022-08-19T03:36:48.882Z,84.68
2022-08-19T03:39:18.406Z,88.49
2022-08-19T03:42:38.254Z,87.99
2022-08-19T03:44:39.947Z,88.26
2022-08-19T03:47:09.186Z,89.03
2022-08-19T03:49:38.105Z,90.03
2022-08-19T03:52:08.605Z,87.72
2022-08-19T03:54:39.116Z,86.94
2022-08-19T03:57:10.013Z,86.67
2022-08-19T03:59:41.692Z,86.28
2022-08-19T04:02:13.550Z,87.98
2022-08-19T04:04:45.195Z,86.90
2022-08-19T04:07:17.208Z,86.03
2022-08-19T04:09:46.405Z,84.97
2022-08-19T04:12:17.017Z,86.06
2022-08-19T04:14:45.972Z,85.26
2022-08-19T04:17:15.288Z,82.59
2022-08-19T04:19:44.852Z,83.85
2022-08-19T04:22:13.681Z,85.37
2022-08-19T04:24:42.973Z,81.77
2022-08-19T04:27:11.875Z,81.46
2022-08-19T04:29:42.353Z,80.43
2022-08-19T04:32:16.282Z,79.50
2022-08-19T04:35:02.407Z,78.00
2022-08-19T04:37:35.893Z,80.12
2022-08-19T04:40:25.041Z,81.46
2022-08-19T04:42:54.680Z,88.24
2022-08-19T04:45:25.159Z,90.43
2022-08-19T04:48:26.206Z,87.79
2022-08-19T04:50:47.275Z,88.17
2022-08-19T04:53:16.291Z,84.52
2022-08-19T04:55:45.254Z,79.34
2022-08-19T04:58:14.085Z,76.27
2022-08-19T05:00:44.916Z,73.74
2022-08-19T05:03:14.149Z,76.11
2022-08-19T05:05:44.816Z,77.67
2022-08-19T05:08:19.548Z,80.10
2022-08-19T05:11:00.712Z,85.73
2022-08-19T05:13:29.779Z,84.18
2022-08-19T05:16:01.529Z,94.04
2022-08-19T05:18:48.063Z,86.62
2022-08-19T05:21:36.474Z,87.09
2022-08-19T05:24:09.496Z,84.20
2022-08-19T05:26:39.066Z,79.57
2022-08-19T05:29:09.511Z,78.35
2022-08-19T05:31:41.774Z,79.26
2022-08-19T05:34:18.364Z,81.17
2022-08-19T05:36:50.502Z,81.13
2022-08-19T05:39:21.987Z,76.10
2022-08-19T05:41:53.734Z,75.43
2022-08-19T05:44:23.536Z,75.93
2022-08-19T05:46:55.057Z,69.98
2022-08-19T05:49:26.272Z,69.52
2022-08-19T05:51:56.381Z,65.13
2022-08-19T05:54:25.818Z,61.06
2022-08-19T05:56:55.704Z,59.01
2022-08-19T05:59:25.041Z,56.44
2022-08-19T06:01:57.686Z,57.20
2022-08-19T06:04:27.447Z,53.60
2022-08-19T06:06:57.395Z,52.20
2022-08-19T06:09:26.848Z,52.78
2022-08-19T06:11:59.915Z,52.40
2022-08-19T06:14:31.114Z,51.47
2022-08-19T06:17:07.165Z,52.40
2022-08-19T06:19:40.633Z,49.31
2022-08-19T06:22:10.869Z,50.04
2022-08-19T06:24:39.755Z,46.70
2022-08-19T06:27:08.767Z,48.48
2022-08-19T06:29:37.803Z,48.09
2022-08-19T06:32:08.501Z,44.21
2022-08-19T06:34:37.944Z,42.40
2022-08-19T06:37:06.896Z,44.00
2022-08-19T06:39:39.227Z,45.08
2022-08-19T06:42:12.333Z,44.49
2022-08-19T06:44:48.006Z,44.22
2022-08-19T06:47:23.940Z,43.46
2022-08-19T06:50:03.186Z,42.68
2022-08-19T06:52:34.560Z,41.64
2022-08-19T06:55:06.953Z,41.00
2022-08-19T06:57:36.547Z,41.41
2022-08-19T07:00:12.302Z,41.42
2022-08-19T07:02:48.152Z,41.36
2022-08-19T07:05:24.707Z,41.56
2022-08-19T07:07:53.604Z,39.38
2022-08-19T07:10:26.582Z,39.96
2022-08-19T07:12:55.658Z,38.33
2022-08-19T07:15:25.090Z,38.37
2022-08-19T07:17:55.536Z,38.60
2022-08-19T07:20:28.645Z,37.26
2022-08-19T07:22:58.541Z,36.07
2022-08-19T07:25:32.381Z,35.14
2022-08-19T07:28:02.426Z,36.80
2022-08-19T07:30:31.657Z,35.85
2022-08-19T07:33:03.542Z,34.61
2022-08-19T07:35:33.265Z,32.83
2022-08-19T07:38:04.764Z,32.73
2022-08-19T07:40:33.910Z,31.82
2022-08-19T07:43:02.742Z,30.81
2022-08-19T07:45:33.286Z,30.05
2022-08-19T07:48:05.314Z,30.01
2022-08-19T07:50:34.685Z,31.32
2022-08-19T07:53:03.564Z,31.94
2022-08-19T07:55:41.709Z,32.91
2022-08-19T07:58:15.039Z,32.06
2022-08-19T08:00:45.007Z,33.71
2022-08-19T08:03:16.068Z,33.38
2022-08-19T08:06:02.639Z,32.88
2022-08-19T08:08:50.758Z,32.55
2022-08-19T08:11:23.963Z,31.02
2022-08-19T08:14:01.347Z,30.33
2022-08-19T08:16:39.618Z,32.22
2022-08-19T08:19:14.748Z,31.60
2022-08-19T08:21:55.367Z,30.59
2022-08-19T08:24:28.322Z,30.38
2022-08-19T08:26:58.503Z,31.54
2022-08-19T08:29:34.752Z,30.66
2022-08-19T08:32:14.851Z,29.62
2022-08-19T08:34:45.485Z,29.70
2022-08-19T08:37:20.596Z,30.16
2022-08-19T08:39:49.453Z,29.64
2022-08-19T08:42:26.978Z,29.89
2022-08-19T08:45:00.534Z,28.51
2022-08-19T08:47:35.889Z,29.57
2022-08-19T08:50:12.095Z,25.82
2022-08-19T08:52:45.392Z,24.95
2022-08-19T08:55:20.501Z,27.20
2022-08-19T08:57:57.508Z,26.42
2022-08-19T09:00:30.518Z,26.36
2022-08-19T09:03:01.692Z,25.04
2022-08-19T09:05:48.561Z,25.27
2022-08-19T09:08:27.982Z,24.04
2022-08-19T09:10:58.625Z,24.20
2022-08-19T09:13:37.324Z,22.51
2022-08-19T09:16:09.891Z,22.85
2022-08-19T09:18:43.779Z,22.94
2022-08-19T09:21:14.349Z,24.10
2022-08-19T09:23:44.383Z,21.82
2022-08-19T09:26:16.493Z,21.44
2022-08-19T09:28:48.662Z,20.64
2022-08-19T09:31:21.016Z,23.10
2022-08-19T09:33:52.210Z,22.77
2022-08-19T09:36:34.576Z,20.73
2022-08-19T09:39:16.067Z,21.86
2022-08-19T09:41:46.993Z,20.37
2022-08-19T09:44:17.007Z,21.64
2022-08-19T09:46:48.427Z,20.90
2022-08-19T09:49:18.910Z,20.53
2022-08-19T09:51:51.798Z,20.14
2022-08-19T09:54:25.003Z,20.80
2022-08-19T09:56:54.808Z,20.27
2022-08-19T09:59:24.437Z,20.68
2022-08-19T10:01:53.785Z,21.36
2022-08-19T10:04:23.721Z,20.85
2022-08-19T10:06:58.131Z,20.77
2022-08-19T10:09:34.434Z,21.05
2022-08-19T10:12:04.862Z,20.14
2022-08-19T10:14:36.013Z,20.00
2022-08-19T10:17:19.931Z,20.31
2022-08-19T10:19:55.704Z,19.53
2022-08-19T10:22:26.699Z,18.72
2022-08-19T10:24:56.133Z,19.00
2022-08-19T10:27:26.387Z,19.46
2022-08-19T10:29:55.782Z,19.23
2022-08-19T10:32:34.232Z,20.92
2022-08-19T10:35:06.097Z,19.65
2022-08-19T10:37:37.473Z,19.68
2022-08-19T10:40:16.972Z,19.49
2022-08-19T10:42:46.023Z,18.71
2022-08-19T10:45:14.885Z,18.37
2022-08-19T10:47:44.353Z,18.61
2022-08-19T10:50:30.635Z,18.96
2022-08-19T10:53:09.668Z,19.13
2022-08-19T10:55:56.629Z,19.25
2022-08-19T10:58:27.063Z,18.81
2022-08-19T11:00:57.829Z,18.71
2022-08-19T11:03:28.874Z,18.82
2022-08-19T11:06:01.785Z,19.06
2022-08-19T11:08:32.534Z,18.67
2022-08-19T11:11:04.372Z,18.97
2022-08-19T11:13:36.259Z,19.38
2022-08-19T11:16:08.933Z,21.03
2022-08-19T11:18:39.802Z,20.88
2022-08-19T11:21:11.518Z,20.56
2022-08-19T11:23:43.044Z,19.94
2022-08-19T11:26:12.213Z,18.34
2022-08-19T11:28:41.261Z,19.17
2022-08-19T11:31:12.893Z,18.88
2022-08-19T11:33:42.437Z,18.29
2022-08-19T11:36:17.528Z,18.81
2022-08-19T11:38:49.385Z,18.22
2022-08-19T11:41:20.258Z,17.94
2022-08-19T11:43:49.373Z,18.36
2022-08-19T11:46:18.990Z,19.00
2022-08-19T11:48:49.125Z,18.68
2022-08-19T11:51:21.099Z,17.78
2022-08-19T11:53:51.812Z,18.22
2022-08-19T11:56:21.674Z,19.03
2022-08-19T11:58:50.659Z,19.00
2022-08-19T12:01:21.306Z,20.03
2022-08-19T12:03:52.624Z,20.06
2022-08-19T12:06:26.651Z,20.29
2022-08-19T12:08:57.714Z,21.31
2022-08-19T12:11:27.165Z,20.01
2022-08-19T12:13:56.450Z,18.47
2022-08-19T12:16:28.042Z,18.86
2022-08-19T12:18:59.516Z,17.62
2022-08-19T12:21:30.175Z,17.35
2022-08-19T12:24:02.228Z,18.28
2022-08-19T12:26:33.091Z,18.74
2022-08-19T12:29:05.901Z,19.15
2022-08-19T12:31:34.832Z,19.97
2022-08-19T12:34:04.080Z,19.44
2022-08-19T12:36:33.018Z,18.37
2022-08-19T12:39:07.596Z,18.55
2022-08-19T12:41:47.560Z,18.47
2022-08-19T12:44:28.784Z,17.46
2022-08-19T12:46:58.937Z,17.88
2022-08-19T12:49:52.200Z,18.35
2022-08-19T12:52:23.086Z,16.89
2022-08-19T12:54:55.694Z,18.37
2022-08-19T12:57:32.950Z,18.06
2022-08-19T13:00:07.513Z,17.68
2022-08-19T13:02:38.974Z,18.85
2022-08-19T13:05:11.118Z,17.38
2022-08-19T13:07:41.621Z,18.16
2022-08-19T13:10:15.285Z,17.84
2022-08-19T13:12:45.081Z,18.89
2022-08-19T13:15:15.098Z,18.30
2022-08-19T13:17:44.405Z,18.32
2022-08-19T13:20:13.520Z,17.80
2022-08-19T13:22:43.498Z,18.96
2022-08-19T13:25:15.118Z,17.71
2022-08-19T13:27:44.144Z,18.11
2022-08-19T13:30:33.352Z,17.93
2022-08-19T13:33:15.397Z,17.64
2022-08-19T13:35:50.739Z,18.61
2022-08-19T13:38:23.974Z,18.36
2022-08-19T13:40:56.829Z,18.63
2022-08-19T13:43:28.727Z,19.13
2022-08-19T13:45:57.951Z,17.74
2022-08-19T13:48:28.425Z,17.61
2022-08-19T13:50:57.520Z,18.44
2022-08-19T13:53:26.510Z,18.10
2022-08-19T13:55:56.840Z,18.17
2022-08-19T13:58:25.827Z,18.96
2022-08-19T14:00:54.718Z,18.49
2022-08-19T14:03:24.569Z,18.98
2022-08-19T14:05:53.342Z,19.19
2022-08-19T14:08:22.401Z,20.41
2022-08-19T14:10:51.561Z,21.26
2022-08-19T14:13:24.297Z,20.79
2022-08-19T14:15:54.126Z,20.04
2022-08-19T14:18:23.818Z,19.95
2022-08-19T14:20:57.870Z,19.66
2022-08-19T14:23:27.899Z,19.72
2022-08-19T14:26:05.683Z,19.32
2022-08-19T14:28:35.993Z,19.96
2022-08-19T14:31:04.890Z,19.74
2022-08-19T14:33:33.870Z,20.22
2022-08-19T14:36:03.061Z,19.49
2022-08-19T14:38:32.412Z,19.22
2022-08-19T14:41:18.436Z,19.11
2022-08-19T14:43:50.842Z,19.10
2022-08-19T14:46:23.139Z,19.26
2022-08-19T14:48:52.764Z,20.65
2022-08-19T14:51:24.580Z,20.04
2022-08-19T14:53:53.502Z,18.88
2022-08-19T14:56:24.757Z,18.67
2022-08-19T14:58:55.910Z,19.37
2022-08-19T15:01:25.632Z,19.84
2022-08-19T15:03:54.822Z,19.26
2022-08-19T15:06:24.456Z,19.31
2022-08-19T15:08:54.405Z,18.99
2022-08-19T15:11:27.490Z,19.68
2022-08-19T15:13:58.861Z,19.77
2022-08-19T15:16:28.842Z,19.70
2022-08-19T15:19:00.065Z,20.28
2022-08-19T15:21:30.333Z,19.85
2022-08-19T15:24:00.796Z,19.64
2022-08-19T15:26:32.960Z,20.43
2022-08-19T15:29:04.301Z,20.35
2022-08-19T15:31:38.123Z,20.32
2022-08-19T15:34:08.899Z,20.96
2022-08-19T15:36:38.653Z,20.87
2022-08-19T15:39:10.154Z,20.20
2022-08-19T15:41:39.574Z,21.17
2022-08-19T15:44:12.184Z,21.20
2022-08-19T15:46:43.277Z,20.95
2022-08-19T15:49:13.957Z,21.07
2022-08-19T15:51:44.370Z,21.71
2022-08-19T15:54:16.761Z,21.08
2022-08-19T15:57:03.287Z,21.83
2022-08-19T15:59:52.044Z,21.30
2022-08-19T16:02:40.790Z,21.85
2022-08-19T16:05:35.138Z,21.74
2022-08-19T16:08:04.705Z,21.49
2022-08-19T16:10:33.583Z,21.86
2022-08-19T16:13:02.677Z,21.83
2022-08-19T16:15:33.840Z,21.99
2022-08-19T16:18:04.460Z,22.68
2022-08-19T16:20:33.366Z,22.10
2022-08-19T16:23:05.727Z,22.38
2022-08-19T16:25:34.557Z,22.68
2022-08-19T16:28:07.681Z,22.94
2022-08-19T16:30:43.009Z,22.95
2022-08-19T16:33:23.049Z,23.83
2022-08-19T16:36:00.428Z,24.03
2022-08-19T16:38:37.603Z,23.94
2022-08-19T16:41:07.716Z,24.69
2022-08-19T16:43:38.981Z,25.21
2022-08-19T16:46:09.959Z,25.86
2022-08-19T16:48:43.047Z,25.69
2022-08-19T16:51:12.821Z,26.10
2022-08-19T16:53:45.119Z,26.55
2022-08-19T16:56:14.183Z,26.55
2022-08-19T16:58:43.279Z,27.34
2022-08-19T17:01:13.821Z,26.67
2022-08-19T17:03:43.015Z,27.45
2022-08-19T17:06:18.373Z,27.65
2022-08-19T17:08:50.771Z,27.30
2022-08-19T17:11:21.232Z,27.20
2022-08-19T17:13:51.356Z,26.93
2022-08-19T17:16:25.793Z,27.09
2022-08-19T17:18:56.454Z,27.47
2022-08-19T17:21:29.140Z,27.31
2022-08-19T17:23:58.497Z,27.01
2022-08-19T17:26:28.239Z,27.80
2022-08-19T17:28:59.270Z,28.49
2022-08-19T17:31:32.054Z,28.78
2022-08-19T17:34:01.664Z,31.00
2022-08-19T17:36:34.245Z,32.49
2022-08-19T17:39:05.350Z,32.00
2022-08-19T17:41:35.287Z,31.50
2022-08-19T17:44:05.623Z,32.23
2022-08-19T17:46:35.913Z,32.76
2022-08-19T17:49:05.144Z,32.59
2022-08-19T17:51:45.057Z,33.50
2022-08-19T17:54:17.160Z,33.74
2022-08-19T17:56:47.076Z,33.60
2022-08-19T17:59:16.316Z,34.87
2022-08-19T18:01:53.231Z,34.80
2022-08-19T18:04:25.539Z,34.64
2022-08-19T18:06:56.022Z,33.92
2022-08-19T18:09:26.490Z,33.68
2022-08-19T18:11:57.216Z,34.06
2022-08-19T18:14:32.931Z,34.02
2022-08-19T18:17:09.382Z,33.46
2022-08-19T18:19:41.183Z,33.74
2022-08-19T18:22:13.042Z,33.12
2022-08-19T18:24:42.888Z,33.87
2022-08-19T18:27:15.233Z,33.59
2022-08-19T18:29:44.138Z,33.91
2022-08-19T18:32:17.267Z,33.76
2022-08-19T18:34:52.486Z,34.04
2022-08-19T18:37:21.427Z,33.82
2022-08-19T18:40:08.080Z,33.92
2022-08-19T18:42:54.579Z,33.97
2022-08-19T18:45:43.692Z,34.21
2022-08-19T18:48:31.600Z,34.21
2022-08-19T18:51:02.147Z,34.39
2022-08-19T18:53:33.597Z,34.82
2022-08-19T18:56:03.895Z,34.96
2022-08-19T18:58:35.108Z,34.90
2022-08-19T19:01:11.086Z,34.89
2022-08-19T19:03:45.835Z,35.67
2022-08-19T19:06:18.168Z,35.90
2022-08-19T19:08:47.597Z,36.18
2022-08-19T19:11:22.505Z,36.81
2022-08-19T19:13:52.082Z,37.58
2022-08-19T19:16:24.407Z,38.61
2022-08-19T19:18:56.168Z,39.06
2022-08-19T19:21:26.849Z,39.04
2022-08-19T19:23:57.223Z,38.79
2022-08-19T19:26:26.218Z,39.53
2022-08-19T19:28:55.306Z,39.68
2022-08-19T19:31:26.908Z,39.87
2022-08-19T19:33:57.753Z,39.63
2022-08-19T19:36:27.145Z,39.94
2022-08-19T19:38:56.061Z,41.34
2022-08-19T19:41:26.114Z,41.89
2022-08-19T19:44:29.433Z,42.64
2022-08-19T19:46:48.257Z,44.79
2022-08-19T19:49:18.609Z,43.89
2022-08-19T19:51:48.329Z,43.83
2022-08-19T19:54:22.971Z,42.98
2022-08-19T19:56:52.300Z,41.89
2022-08-19T19:59:21.451Z,42.46
2022-08-19T20:01:50.518Z,41.60
2022-08-19T20:04:24.917Z,42.04
2022-08-19T20:06:54.124Z,42.27
2022-08-19T20:09:22.033Z,42.07
2022-08-19T20:11:53.917Z,42.70
2022-08-19T20:14:24.934Z,42.83
2022-08-19T20:16:55.657Z,42.70
2022-08-19T20:19:27.419Z,43.21
2022-08-19T20:21:57.585Z,42.54
2022-08-19T20:24:31.366Z,43.76
2022-08-19T20:27:01.040Z,43.59
2022-08-19T20:29:39.184Z,44.98
2022-08-19T20:32:11.542Z,44.33
2022-08-19T20:34:44.647Z,44.30
2022-08-19T20:37:13.636Z,45.18
2022-08-19T20:39:42.515Z,46.17
2022-08-19T20:42:11.660Z,46.51
2022-08-19T20:44:40.610Z,45.51
2022-08-19T20:47:09.582Z,45.61
2022-08-19T20:49:38.541Z,45.97
2022-08-19T20:52:08.972Z,47.94
2022-08-19T20:54:37.941Z,47.46
2022-08-19T20:57:06.927Z,47.45
2022-08-19T20:59:37.420Z,48.54
2022-08-19T21:02:06.929Z,48.99
2022-08-19T21:04:35.779Z,48.81
2022-08-19T21:07:04.908Z,48.67
2022-08-19T21:09:35.881Z,49.11
2022-08-19T21:12:06.070Z,48.08
2022-08-19T21:14:35.285Z,49.09
2022-08-19T21:17:04.098Z,49.88
2022-08-19T21:19:33.160Z,48.76
2022-08-19T21:22:02.726Z,48.74
2022-08-19T21:24:31.897Z,48.03
2022-08-19T21:27:02.250Z,48.87
2022-08-19T21:29:32.158Z,48.39
2022-08-19T21:32:01.104Z,48.27
2022-08-19T21:34:30.193Z,48.92
2022-08-19T21:36:59.004Z,48.99
2022-08-19T21:39:27.976Z,49.12
2022-08-19T21:41:56.819Z,48.83
2022-08-19T21:44:27.244Z,50.10
2022-08-19T21:46:56.946Z,49.66
2022-08-19T21:49:25.788Z,50.29
2022-08-19T21:51:54.690Z,50.20
2022-08-19T21:54:23.604Z,52.01
2022-08-19T21:56:52.597Z,52.48
2022-08-19T21:59:21.791Z,53.30
2022-08-19T22:02:05.654Z,51.86
2022-08-19T22:04:41.596Z,51.55
2022-08-19T22:07:14.130Z,51.18
2022-08-19T22:09:44.355Z,50.54
2022-08-19T22:12:24.072Z,50.76
2022-08-19T22:14:54.543Z,51.12
2022-08-19T22:17:24.979Z,50.79
2022-08-19T22:19:53.973Z,50.48
2022-08-19T22:22:24.386Z,51.31
2022-08-19T22:24:53.451Z,51.83
2022-08-19T22:27:22.557Z,51.59
2022-08-19T22:29:52.514Z,51.36
2022-08-19T22:32:26.588Z,52.77
2022-08-19T22:34:58.873Z,55.35
2022-08-19T22:37:29.623Z,55.37
2022-08-19T22:40:00.541Z,54.55
2022-08-19T22:42:31.907Z,54.03
2022-08-19T22:45:02.553Z,54.06
2022-08-19T22:47:32.280Z,54.86
2022-08-19T22:50:05.994Z,54.46
2022-08-19T22:52:34.573Z,54.27
2022-08-19T22:55:07.320Z,55.82
2022-08-19T22:57:36.240Z,54.85
2022-08-19T23:00:07.762Z,59.35
2022-08-19T23:02:39.218Z,58.64
2022-08-19T23:05:24.688Z,61.20
2022-08-19T23:07:54.165Z,60.91
2022-08-19T23:10:27.415Z,60.90
2022-08-19T23:12:59.298Z,60.95
2022-08-19T23:15:31.268Z,61.69
2022-08-19T23:18:02.731Z,61.14
2022-08-19T23:20:35.874Z,60.61
2022-08-19T23:23:06.708Z,60.47
2022-08-19T23:25:37.044Z,61.22
2022-08-19T23:28:25.129Z,60.41
2022-08-19T23:30:54.677Z,59.66
2022-08-19T23:33:26.112Z,58.83
2022-08-19T23:36:18.851Z,58.60
2022-08-19T23:38:49.790Z,58.84
2022-08-19T23:41:20.564Z,58.81
2022-08-19T23:43:50.812Z,58.89
2022-08-19T23:46:27.542Z,59.36
2022-08-19T23:48:57.732Z,59.97
2022-08-19T23:51:28.043Z,60.01
2022-08-19T23:53:56.964Z,60.38
2022-08-19T23:56:25.854Z,61.41
2022-08-19T23:58:54.918Z,61.70
